Flugplatz Dahlemer Binz

Für EDKV sind keine METAR/TAF Berichte vorhanden.
Es werden die Flugwettermeldungen vom Flugplatz Buchel Airport in 45 km Entfernung angezeigt.

Bericht für ETSB

vom 15.07. um 18:20 UTC

Wind 3 kt aus 310°

Sichtweite 10 km oder mehr

Temperatur 16.0°C

Taupunkt 8.0°C

Luftfeuchtigkeit 59%

Luftdruck 1016 hPa

ETSB 151820Z AUTO 31003KT 9999 // ////// 16/08 Q1016 ///

Prognose für ETSB

vom 15.07. um 10:06 UTC

Zwischen 11:00 UTC und 20:00 UTC

Wind 7 kt aus 320°

Sichtweite 10 km oder mehr

keine signifikanten Wettererscheinungen

aufgebrochene Bewölkung in 5000 ft

TAF ETSB 151006Z 1511/1520 32007KT 9999 NSW BKN050 BY ETGL
Impressum